Omaha, Nebraska
Current Conditions -  °F | °C
As of 4:52 PM on Tuesday 27 Jan 2015 (Local Time) from KOMA Reporting Station
Scattered Clouds Scattered Clouds  
Wind Chill: 11°   Ceiling: Unl
Heat Index: 11°   Visibility: 10mi
Dew Point: -1°   Wind: 14mph
Humidity: 45%   Direction: 130°SE
Pressure: 30.04"   Gusts: NA
Location:  41.26°N, 95.94°W
Report Text: KOMA 272252Z 13012KT 10SM SCT250 11/M01 A3004 RMK AO2 SLP176 T01111006
Loading
Personal Weather Stations






























Interactive Weather Map New forecast layout! Learn more

10-Day Weather Forecast

Advertisements
Track Severe Weather on mobile